Magsenger 19 — VRJY9 — position and weather

sailwx.info

Track history (hours):
 
Tides and Currents Weather Stations Pressure Air Temp Water Temp Dewpoint Dewpoint Depression Visibility Wind Speed Wind Dir Waves Ship Positions

Magsenger 19

Last reported at 2017-Nov-18 15:07 UTC. Time now 2017-Nov-21 12:18 UTC.
Position N 37°45' E 024°22'.

Length 254 m; draft 14.4 m.

Type: Cargo ship. MMSI: 477638400.

Date/timePositionNaut miles runAvg speedWind from/ knotsBaromVisibWave heightAir tempDewpointWater temp
2017-Nov-18 15:07N 37°45' E 024°22'212.3
2017-Nov-18 14:56N 37°44' E 024°20'4312.5
2017-Nov-18 11:27N 37°08' E 023°49'43411.2
2017-Nov-16 20:33N 36°25' E 014°49'112.5
2017-Nov-16 20:29N 36°25' E 014°48'612.9
2017-Nov-16 20:00N 36°27' E 014°41'712.9
2017-Nov-16 19:30N 36°29' E 014°33'612.9
2017-Nov-16 19:00N 36°31' E 014°26'612.5
2017-Nov-16 18:30N 36°33' E 014°18'612.2
2017-Nov-16 18:00N 36°34' E 014°11'612.3
2017-Nov-16 17:31N 36°36' E 014°04'612.3
2017-Nov-16 17:00N 36°38' E 013°56'612.3
2017-Nov-16 16:29N 36°40' E 013°49'612.2
2017-Nov-16 16:00N 36°42' E 013°42'712.2
2017-Nov-16 15:26N 36°44' E 013°34'612.2
2017-Nov-16 14:57N 36°46' E 013°27'  
2017-Nov-13 01:57N 36°06' W 005°22'0 0.0
2017-Nov-13 01:30N 36°06' W 005°22'0 0.0
2017-Nov-13 00:57N 36°06' W 005°22'0 0.0
2017-Nov-13 00:27N 36°06' W 005°22'0 0.0
2017-Nov-13 00:00N 36°06' W 005°22'0 0.0
2017-Nov-12 23:30N 36°06' W 005°22'0 0.0
2017-Nov-12 23:00N 36°06' W 005°22'0 0.0
2017-Nov-12 22:12N 36°06' W 005°22'0 0.4
2017-Nov-12 22:00N 36°06' W 005°22'2 3.8
2017-Nov-12 21:30N 36°05' W 005°22'3 6.6
2017-Nov-12 21:00N 36°01' W 005°22'4 7.3
2017-Nov-12 20:30N 35°59' W 005°25'5 9.8
2017-Nov-12 20:00N 35°57' W 005°31'50610.5
2017-Nov-10 19:37N 30°30' W 013°13'1 8.9
2017-Nov-10 19:29N 30°29' W 013°14'6 9.0
2017-Nov-10 18:48N 30°25' W 013°20'4 9.3
2017-Nov-10 18:25N 30°23' W 013°23'5 9.1
2017-Nov-10 17:53N 30°20' W 013°27'43 8.6
2017-Nov-10 12:57N 29°51' W 014°04'5 8.7
2017-Nov-10 12:21N 29°48' W 014°08'3 8.7
2017-Nov-10 11:59N 29°46' W 014°11'4 8.8
2017-Nov-10 11:29N 29°43' W 014°15'4 8.5
2017-Nov-10 11:00N 29°41' W 014°19'4 8.6
2017-Nov-10 10:30N 29°38' W 014°22'4 8.6
2017-Nov-10 10:00N 29°35' W 014°26'5 8.5
2017-Nov-10 09:28N 29°32' W 014°30'4 8.8
2017-Nov-10 09:00N 29°29' W 014°33'4 8.6
2017-Nov-10 08:30N 29°26' W 014°37'4 8.4
2017-Nov-10 08:00N 29°23' W 014°40'5 8.7
2017-Nov-10 07:27N 29°20' W 014°45'8 8.9
2017-Nov-10 06:32N 29°15' W 014°52'1 8.8
2017-Nov-10 06:25N 29°14' W 014°53'5 8.7
2017-Nov-10 05:49N 29°11' W 014°57'3 8.8
2017-Nov-10 05:30N 29°09' W 014°59'5 8.8
2017-Nov-10 04:57N 29°06' W 015°04'4 8.9
2017-Nov-10 04:30N 29°03' W 015°07'4 9.0
2017-Nov-10 04:00N 28°60' W 015°11'4 8.8
2017-Nov-10 03:30N 28°57' W 015°14'4 9.0
2017-Nov-10 03:00N 28°54' W 015°18'4 9.0
2017-Nov-10 02:30N 28°51' W 015°22'5 9.0
2017-Nov-10 02:00N 28°48' W 015°26'4 8.9
2017-Nov-10 01:30N 28°45' W 015°30'4 8.8
2017-Nov-10 01:00N 28°42' W 015°33'4 8.9
2017-Nov-10 00:30N 28°39' W 015°37'5 9.2
2017-Nov-10 00:00N 28°35' W 015°40'5 9.4
2017-Nov-09 23:30N 28°32' W 015°44'5 9.4
2017-Nov-09 23:01N 28°28' W 015°47'5 9.5
2017-Nov-09 22:31N 28°25' W 015°51'5 9.5
2017-Nov-09 22:00N 28°21' W 015°54'5 9.4
2017-Nov-09 21:30N 28°17' W 015°57'26 9.7
2017-Nov-09 18:49N 27°57' W 016°17'710.1
2017-Nov-09 18:10N 27°52' W 016°21'210.6
2017-Nov-09 18:00N 27°51' W 016°23'1610.8
2017-Nov-09 16:33N 27°40' W 016°36'  
Track history (hours):
 
Tides and Currents Weather Stations Pressure Air Temp Water Temp Dewpoint Dewpoint Depression Visibility Wind Speed Wind Dir Waves Ship Positions

Magsenger 19

Last reported at 2017-Nov-18 15:07 UTC. Time now 2017-Nov-21 12:18 UTC.
Position N 37°45' E 024°22'.

Length 254 m; draft 14.4 m.

Type: Cargo ship. MMSI: 477638400.

Date/timePositionNaut miles runAvg speedWind from/ knotsBaromVisibWave heightAir tempDewpointWater temp
2017-Nov-18 15:07N 37°45' E 024°22'212.3
2017-Nov-18 14:56N 37°44' E 024°20'4312.5
2017-Nov-18 11:27N 37°08' E 023°49'43411.2
2017-Nov-16 20:33N 36°25' E 014°49'112.5
2017-Nov-16 20:29N 36°25' E 014°48'612.9
2017-Nov-16 20:00N 36°27' E 014°41'712.9
2017-Nov-16 19:30N 36°29' E 014°33'612.9
2017-Nov-16 19:00N 36°31' E 014°26'612.5
2017-Nov-16 18:30N 36°33' E 014°18'612.2
2017-Nov-16 18:00N 36°34' E 014°11'612.3
2017-Nov-16 17:31N 36°36' E 014°04'612.3
2017-Nov-16 17:00N 36°38' E 013°56'612.3
2017-Nov-16 16:29N 36°40' E 013°49'612.2
2017-Nov-16 16:00N 36°42' E 013°42'712.2
2017-Nov-16 15:26N 36°44' E 013°34'612.2
2017-Nov-16 14:57N 36°46' E 013°27'  
2017-Nov-13 01:57N 36°06' W 005°22'0 0.0
2017-Nov-13 01:30N 36°06' W 005°22'0 0.0
2017-Nov-13 00:57N 36°06' W 005°22'0 0.0
2017-Nov-13 00:27N 36°06' W 005°22'0 0.0
2017-Nov-13 00:00N 36°06' W 005°22'0 0.0
2017-Nov-12 23:30N 36°06' W 005°22'0 0.0
2017-Nov-12 23:00N 36°06' W 005°22'0 0.0
2017-Nov-12 22:12N 36°06' W 005°22'0 0.4
2017-Nov-12 22:00N 36°06' W 005°22'2 3.8
2017-Nov-12 21:30N 36°05' W 005°22'3 6.6
2017-Nov-12 21:00N 36°01' W 005°22'4 7.3
2017-Nov-12 20:30N 35°59' W 005°25'5 9.8
2017-Nov-12 20:00N 35°57' W 005°31'50610.5
2017-Nov-10 19:37N 30°30' W 013°13'1 8.9
2017-Nov-10 19:29N 30°29' W 013°14'6 9.0
2017-Nov-10 18:48N 30°25' W 013°20'4 9.3
2017-Nov-10 18:25N 30°23' W 013°23'5 9.1
2017-Nov-10 17:53N 30°20' W 013°27'43 8.6
2017-Nov-10 12:57N 29°51' W 014°04'5 8.7
2017-Nov-10 12:21N 29°48' W 014°08'3 8.7
2017-Nov-10 11:59N 29°46' W 014°11'4 8.8
2017-Nov-10 11:29N 29°43' W 014°15'4 8.5
2017-Nov-10 11:00N 29°41' W 014°19'4 8.6
2017-Nov-10 10:30N 29°38' W 014°22'4 8.6
2017-Nov-10 10:00N 29°35' W 014°26'5 8.5
2017-Nov-10 09:28N 29°32' W 014°30'4 8.8
2017-Nov-10 09:00N 29°29' W 014°33'4 8.6
2017-Nov-10 08:30N 29°26' W 014°37'4 8.4
2017-Nov-10 08:00N 29°23' W 014°40'5 8.7
2017-Nov-10 07:27N 29°20' W 014°45'8 8.9
2017-Nov-10 06:32N 29°15' W 014°52'1 8.8
2017-Nov-10 06:25N 29°14' W 014°53'5 8.7
2017-Nov-10 05:49N 29°11' W 014°57'3 8.8
2017-Nov-10 05:30N 29°09' W 014°59'5 8.8
2017-Nov-10 04:57N 29°06' W 015°04'4 8.9
2017-Nov-10 04:30N 29°03' W 015°07'4 9.0
2017-Nov-10 04:00N 28°60' W 015°11'4 8.8
2017-Nov-10 03:30N 28°57' W 015°14'4 9.0
2017-Nov-10 03:00N 28°54' W 015°18'4 9.0
2017-Nov-10 02:30N 28°51' W 015°22'5 9.0
2017-Nov-10 02:00N 28°48' W 015°26'4 8.9
2017-Nov-10 01:30N 28°45' W 015°30'4 8.8
2017-Nov-10 01:00N 28°42' W 015°33'4 8.9
2017-Nov-10 00:30N 28°39' W 015°37'5 9.2
2017-Nov-10 00:00N 28°35' W 015°40'5 9.4
2017-Nov-09 23:30N 28°32' W 015°44'5 9.4
2017-Nov-09 23:01N 28°28' W 015°47'5 9.5
2017-Nov-09 22:31N 28°25' W 015°51'5 9.5
2017-Nov-09 22:00N 28°21' W 015°54'5 9.4
2017-Nov-09 21:30N 28°17' W 015°57'26 9.7
2017-Nov-09 18:49N 27°57' W 016°17'710.1
2017-Nov-09 18:10N 27°52' W 016°21'210.6
2017-Nov-09 18:00N 27°51' W 016°23'1610.8
2017-Nov-09 16:33N 27°40' W 016°36'  

Dump ship's entire track history